Flight Track Log - Related Links

Times and Time Zones

All times are in EDT time to prevent confusion due to time zone crossing. See the SKW5476 flight status page for this flight to view local times or setup timezone preferences in your user account.

Time Position Orientation Groundspeed Altitude Reporting Facility
EDT Latitude Longitude Course Direction KTS MPH feet Rate Location/Type
Tue 03:09:24 PM 37.6333 -122.3667 North 137 158 1,100  Level Northern Cal TRACON
Tue 03:10:24 PM 37.6833 -122.3667 360° North 179 206 2,400 1,185 Climbing Northern Cal TRACON
Tue 03:10:45 PM 37.6961 -122.3597 23° Northeast 169 194 2,700 1,317 Climbing Oakland Center
Tue 03:11:46 PM 37.7436 -122.3328 24° Northeast 185 213 4,200 1,512 Climbing Oakland Center
Tue 03:12:00 PM 37.8351 -122.3667 North  Level FlightAware Approximate
Tue 03:12:48 PM 37.7950 -122.3219 North 187 215 5,800  Level Oakland Center
Tue 03:13:00 PM 37.9076 -122.3748 345° North  Level FlightAware Approximate
Tue 03:13:49 PM 37.8492 -122.3264 356° North 193 222 7,300  Level Oakland Center
Tue 03:14:00 PM 37.9756 -122.3667 North  Level FlightAware Approximate
Tue 03:14:50 PM 37.9042 -122.3256 North 198 228 8,800  Level Oakland Center
Tue 03:15:51 PM 37.9608 -122.3139 North 205 236 9,900 1,317 Climbing Oakland Center
Tue 03:16:53 PM 38.0361 -122.2975 10° North 225 259 11,500 1,561 Climbing Oakland Center
Tue 03:17:54 PM 38.0953 -122.2903 North 216 249 13,100 1,426 Climbing Oakland Center
Tue 03:18:55 PM 38.1544 -122.2789 North 216 249 14,400 1,279 Climbing Oakland Center
Tue 03:19:56 PM 38.2150 -122.2697 North 218 251 15,700 1,220 Climbing Oakland Center
Tue 03:20:58 PM 38.2742 -122.2606 North 217 250 16,900 1,024 Climbing Oakland Center
Tue 03:21:59 PM 38.3367 -122.2506 North 223 257 17,800 885 Climbing Oakland Center
Tue 03:23:00 PM 38.4000 -122.2386 North 229 264 18,700 927 Climbing Oakland Center
Tue 03:24:02 PM 38.4653 -122.2269 North 236 272 19,700 1,073 Climbing Oakland Center
Tue 03:25:03 PM 38.5417 -122.2153 North 232 267 20,900 1,033 Climbing Oakland Center
Tue 03:26:04 PM 38.6044 -122.2044 North 229 264 21,800 836 Climbing Oakland Center
Tue 03:27:05 PM 38.6678 -122.1947 North 229 264 22,600 780 Climbing Oakland Center
Tue 03:28:07 PM 38.7339 -122.1828 North 230 265 23,400 683 Climbing Oakland Center
Tue 03:29:08 PM 38.7978 -122.1706 North 231 266 24,000 295 Climbing Oakland Center
Tue 03:30:09 PM 38.8656 -122.1592 North 241 277 24,000  Level Oakland Center
Tue 03:31:11 PM 38.9383 -122.1467 North 256 295 24,000 49 Level Oakland Center
Tue 03:32:12 PM 39.0147 -122.1308 North 270 311 24,100  Climbing Oakland Center
Tue 03:33:13 PM 39.0864 -122.1211 North 264 304 24,000 -49 Descending Oakland Center
Tue 03:34:14 PM 39.1564 -122.1106 North 255 293 24,000  Level Oakland Center
Tue 03:35:16 PM 39.2269 -122.0978 North 253 291 24,000  Level Oakland Center
Tue 03:36:17 PM 39.2964 -122.0842 North 252 290 24,000  Level Oakland Center
Tue 03:37:18 PM 39.3653 -122.0719 North 250 288 24,000  Level Oakland Center
Tue 03:38:19 PM 39.4344 -122.0603 North 249 287 24,000  Level Oakland Center
Tue 03:39:21 PM 39.5164 -122.0489 North 246 283 24,000  Level Oakland Center
Tue 03:40:22 PM 39.5836 -122.0381 North 243 280 24,000  Level Oakland Center
Tue 03:41:23 PM 39.6553 -122.0217 10° North 254 292 24,000  Level Oakland Center
Tue 03:42:24 PM 39.7244 -122.0114 North 248 285 24,000  Level Oakland Center
Tue 03:43:26 PM 39.7953 -121.9978 North 254 292 24,000  Level Oakland Center
Tue 03:44:27 PM 39.8644 -121.9858 North 250 288 24,000  Level Oakland Center
Tue 03:45:28 PM 39.9347 -121.9719 North 252 290 24,000  Level Oakland Center
Tue 03:46:29 PM 40.0047 -121.9619 North 252 290 24,000  Level Oakland Center
Tue 03:47:31 PM 40.0750 -121.9469 North 254 292 24,000  Level Oakland Center
Tue 03:48:32 PM 40.1450 -121.9333 North 253 291 24,000  Level Oakland Center
Tue 03:49:33 PM 40.2139 -121.9206 North 250 288 24,000  Level Oakland Center
Tue 03:50:34 PM 40.2975 -121.9083 North 250 288 24,000  Level Oakland Center
Tue 03:51:36 PM 40.3686 -121.8958 North 253 291 24,000  Level Oakland Center
Tue 03:52:37 PM 40.4386 -121.8831 North 252 290 24,000  Level Oakland Center
Tue 03:53:38 PM 40.5092 -121.8719 North 252 290 24,000  Level Oakland Center
Tue 03:54:39 PM 40.5794 -121.8575 North 258 297 24,000  Level Oakland Center
Tue 03:55:41 PM 40.6494 -121.8431 North 256 295 24,000  Level Oakland Center
Tue 03:56:42 PM 40.7194 -121.8308 North 255 293 24,000  Level Oakland Center
Tue 03:57:43 PM 40.7906 -121.8186 North 257 296 24,000  Level Oakland Center
Tue 03:58:45 PM 40.8606 -121.8058 North 256 295 24,000  Level Oakland Center
Tue 03:59:46 PM 40.9311 -121.7928 North 258 297 24,000  Level Oakland Center
Tue 04:00:47 PM 41.0150 -121.7783 North 256 295 24,000  Level Oakland Center
Tue 04:01:49 PM 41.0858 -121.7658 North 258 297 24,000  Level Oakland Center
Tue 04:02:50 PM 41.1558 -121.7536 North 256 295 24,000  Level Oakland Center
Tue 04:03:06 PM 41.1703 -121.7514 North 255 293 24,000  Level Seattle Center
Tue 04:04:08 PM 41.2406 -121.7392 North 255 293 24,000  Level Seattle Center
Tue 04:05:09 PM 41.3111 -121.7264 North 256 295 24,000  Level Seattle Center
Tue 04:06:10 PM 41.3806 -121.7139 North 254 292 24,000  Level Seattle Center
Tue 04:07:11 PM 41.4653 -121.6972 North 255 293 24,000  Level Seattle Center
Tue 04:08:12 PM 41.5353 -121.6844 North 254 292 24,000  Level Seattle Center
Tue 04:09:13 PM 41.6047 -121.6706 North 254 292 24,000  Level Seattle Center
Tue 04:10:14 PM 41.6742 -121.6567 North 254 292 24,000  Level Seattle Center
Tue 04:11:15 PM 41.7439 -121.6439 North 255 293 24,000  Level Seattle Center
Tue 04:12:16 PM 41.8128 -121.6306 North 252 290 24,000  Level Seattle Center
Tue 04:13:17 PM 41.8819 -121.6183 North 252 290 24,000  Level Seattle Center
Tue 04:14:18 PM 41.9503 -121.6050 North 251 289 24,000  Level Seattle Center
Tue 04:15:19 PM 42.0172 -121.5919 North 247 284 24,000  Level Seattle Center
Tue 04:16:20 PM 42.0856 -121.5778 North 250 288 24,000  Level Seattle Center
Tue 04:17:21 PM 42.1672 -121.5633 North 249 287 24,000  Level Seattle Center
Tue 04:18:22 PM 42.2364 -121.5489 North 251 289 24,000  Level Seattle Center
Tue 04:19:23 PM 42.3053 -121.5369 North 251 289 24,000  Level Seattle Center
Tue 04:20:24 PM 42.3736 -121.5242 North 250 288 24,000  Level Seattle Center
Tue 04:21:25 PM 42.4419 -121.5094 North 249 287 24,000  Level Seattle Center
Tue 04:22:26 PM 42.5119 -121.4969 North 253 291 24,000  Level Seattle Center
Tue 04:23:27 PM 42.5803 -121.4831 North 250 288 24,000  Level Seattle Center
Tue 04:24:28 PM 42.6506 -121.4700 North 252 290 24,000 -328 Level Seattle Center
Tue 04:26:30 PM 42.7917 -121.4431 North 260 299 23,000 -590 Descending Seattle Center
Tue 04:27:31 PM 42.8711 -121.4269 North 282 325 22,200 -689 Descending Seattle Center
Tue 04:28:32 PM 42.9514 -121.4103 North 290 334 21,600 -639 Descending Seattle Center
Tue 04:29:33 PM 43.0483 -121.3908 North 293 337 20,900 -639 Descending Seattle Center
Tue 04:30:34 PM 43.1289 -121.3756 North 292 336 20,300 -590 Descending Seattle Center
Tue 04:31:35 PM 43.2092 -121.3589 North 292 336 19,700 -590 Descending Seattle Center
Tue 04:32:36 PM 43.2906 -121.3453 North 292 336 19,100 -984 Descending Seattle Center
Tue 04:33:37 PM 43.3725 -121.3281 North 298 343 17,700 -1,377 Descending Seattle Center
Tue 04:34:38 PM 43.4533 -121.3128 North 294 338 16,300 -1,377 Descending Seattle Center
Tue 04:35:39 PM 43.5281 -121.2997 North 274 315 14,900 -1,426 Descending Seattle Center
Tue 04:36:40 PM 43.5953 -121.2864 North 257 296 13,400 -1,426 Descending Seattle Center
Tue 04:37:41 PM 43.6667 -121.2706 North 258 297 12,000 -787 Descending Seattle Center
Tue 04:38:42 PM 43.7336 -121.2581 North 247 284 11,800 -393 Descending Seattle Center
Tue 04:39:43 PM 43.8119 -121.2436 North 237 273 11,200 -541 Descending Seattle Center
Tue 04:40:44 PM 43.8772 -121.2294 North 237 273 10,700 -446 Descending Seattle Center
Tue 04:41:44 PM 43.9444 -121.2156 North 240 276 10,300 -545 Descending Seattle Center
Tue 04:42:45 PM 44.0106 -121.1806 21° North 256 295 9,600 -1,279 Descending Seattle Center
Tue 04:43:46 PM 44.0733 -121.1383 26° Northeast 254 292 7,700 -1,869 Descending Seattle Center
Tue 04:44:47 PM 44.1358 -121.1044 21° North 249 287 5,800 -1,623 Descending Seattle Center
Tue 04:45:48 PM 44.1928 -121.0747 21° North 235 270 4,400 -1,033 Descending Seattle Center
Tue 04:46:49 PM 44.2317 -121.1000 335° Northwest 192 221 3,700 -689 Descending Seattle Center

Login

Don't have an account? Register now (free) for customized features, flight alerts, and more!